Disclaimer

Please do not use the information listed here in-flight or in-navigation, as they are not provided to us by the airports but are provided by volunteers, so they might be outdated.

Search


Regions


Airport information page

Radio informations:
Tower (TWR) - 124.3 MHz
Approach (APP) - 124.3 MHz

Airport informations:
Latitude: 44° 19' 05.30" N
Longitude: 023° 53' 19.00" E
Elevation: 626 feet - 191 meters
Operating hours: N/A
Operating agency: Military-civil joint use airport
Timezone: UTC+2(+3DT)
Fuel: N/A

Runway information:
09/27 - 8203 x 148 feet< - >2500 x 45 meters

Recent METARs:
LRCV 210600Z AUTO 06010KT 2600 BR BKN005/// BKN007/// 01/00 Q1016
LRCV 210630Z AUTO 06009KT 2000 R09/2000D -FZDZ FEW003/// BKN005/// OVC007/// 01/01 Q1017
LRCV 210700Z 06010KT 1800 R09/1900N -DZ BR BKN003 OVC007 01/01 Q1017 R09/29//95

Airport on the map: